Terminal Aerodrome Forecast
Issued by NWS Lake Charles, LA

Home | Current Version | Previous Version | Text Only | Print | Product List | Glossary On
Versions: 1 2 3 4 5 6 7 8 9 10 11 12 13 14
000
FTUS44 KLCH 221100
TAFLCH
TAF
KLCH 221140Z 2212/2312 11007KT P6SM FEW040 BKN250
     FM221400 11012G18KT P6SM FEW040 OVC100
     FM221600 12014G22KT P6SM VCSH SCT025 OVC040
     FM230000 13012G22KT P6SM VCTS FEW010 OVC035CB
     FM230200 15012G20KT 5SM TSRA FEW015 OVC020CB PROB30 2302/2308
      1SM TSRA BKN015 OVC025CB=

USA.gov is the U.S. government's official web portal to all federal, state and local government web resources and services.